< < Back
Terminal Aerodrome Forecast


Current Version              Previous Versions:   1  2  3  4  5  6  7  8  9  

Terminal Aerodrome Forecast

621
FTUS42 KMLB 222300
TAFDAB
TAF
KDAB 222340Z 2300/2324 18003KT P6SM FEW040 SCT060 BKN250
     FM230500 20003KT 4SM BR SCT002 OVC005
     FM231500 19006KT P6SM SCT010 BKN020 BKN250
     FM231600 18011KT P6SM SCT030 SCT080 BKN250=



Latest METAR

177
SAUS80 KWBC 230300 RRB
MTRDAB
METAR KDAB 230253Z 17005KT 10SM FEW040 FEW065 BKN140 21/19 A2996 RMK AO2
SLP144 OCNL LTGICCC DSNT NW-N CB DSNT NW-N T02110194
50006


USA.gov is the U.S. government's official web portal to all federal, state and local government web resources and services.